createdAt,value
2018-10-01T00:01:24.259Z,9.48
2018-10-01T00:06:18.289Z,8.93
2018-10-01T00:11:11.519Z,8.98
2018-10-01T00:16:05.114Z,11.55
2018-10-01T00:21:03.869Z,9.10
2018-10-01T00:25:57.120Z,9.78
2018-10-01T00:30:50.795Z,10.78
2018-10-01T00:35:44.033Z,8.28
2018-10-01T00:40:37.298Z,10.68
2018-10-01T00:45:30.535Z,8.70
2018-10-01T00:50:23.785Z,8.25
2018-10-01T00:55:17.011Z,11.70
2018-10-01T01:00:10.297Z,9.65
2018-10-01T01:05:03.598Z,8.50
2018-10-01T01:09:56.815Z,8.70
2018-10-01T01:14:50.046Z,8.65
2018-10-01T01:19:43.295Z,7.03
2018-10-01T01:24:36.506Z,10.63
2018-10-01T01:29:29.767Z,11.12
2018-10-01T01:34:23.096Z,8.68
2018-10-01T01:39:16.346Z,12.45
2018-10-01T01:44:09.544Z,8.50
2018-10-01T01:49:03.076Z,11.00
2018-10-01T01:53:56.278Z,8.15
2018-10-01T01:58:49.616Z,9.37
2018-10-01T02:03:42.904Z,6.15
2018-10-01T02:08:36.385Z,12.28
2018-10-01T02:13:29.607Z,9.55
2018-10-01T02:18:22.853Z,9.03
2018-10-01T02:23:16.114Z,4.28
2018-10-01T02:28:09.381Z,6.47
2018-10-01T02:33:03.133Z,4.67
2018-10-01T02:37:56.389Z,8.25
2018-10-01T02:42:49.625Z,6.22
2018-10-01T02:47:42.919Z,10.55
2018-10-01T02:52:41.701Z,6.67
2018-10-01T02:57:34.938Z,6.70
2018-10-01T03:02:28.220Z,9.08
2018-10-01T03:07:21.511Z,6.47
2018-10-01T03:12:14.888Z,8.50
2018-10-01T03:17:08.117Z,7.50
2018-10-01T03:22:01.355Z,10.70
2018-10-01T03:26:54.636Z,7.00
2018-10-01T03:31:47.859Z,8.33
2018-10-01T03:36:41.094Z,9.23
2018-10-01T03:41:34.330Z,10.07
2018-10-01T03:46:27.567Z,10.10
2018-10-01T03:51:20.880Z,12.15
2018-10-01T03:56:14.167Z,10.25
2018-10-01T04:01:07.537Z,10.65
2018-10-01T04:06:00.919Z,13.15
2018-10-01T04:10:54.164Z,8.48
2018-10-01T04:15:47.437Z,6.65
2018-10-01T04:20:40.716Z,9.78
2018-10-01T04:25:34.085Z,9.88
2018-10-01T04:30:27.451Z,6.90
2018-10-01T04:35:20.695Z,6.62
2018-10-01T04:40:15.096Z,11.97
2018-10-01T04:45:08.384Z,10.85
2018-10-01T04:50:01.660Z,9.53
2018-10-01T04:54:54.943Z,9.50
2018-10-01T04:59:48.209Z,11.38
2018-10-01T05:04:41.432Z,9.95
2018-10-01T05:09:34.734Z,11.10
2018-10-01T05:14:28.019Z,9.40
2018-10-01T05:19:21.253Z,11.93
2018-10-01T05:24:14.509Z,11.25
2018-10-01T05:29:08.124Z,7.55
2018-10-01T05:34:01.338Z,10.45
2018-10-01T05:38:54.621Z,11.12
2018-10-01T05:43:47.868Z,8.43
2018-10-01T05:48:41.191Z,10.55
2018-10-01T05:53:34.420Z,12.58
2018-10-01T05:58:27.693Z,8.08
2018-10-01T06:03:21.057Z,8.50
2018-10-01T06:08:14.313Z,9.27
2018-10-01T06:13:07.567Z,10.38
2018-10-01T06:18:01.110Z,7.80
2018-10-01T06:22:54.362Z,6.80
2018-10-01T06:27:47.591Z,7.15
2018-10-01T06:32:40.867Z,7.00
2018-10-01T06:37:34.076Z,8.10
2018-10-01T06:42:27.369Z,6.42
2018-10-01T06:47:20.612Z,7.37
2018-10-01T06:52:13.811Z,8.40
2018-10-01T06:57:07.055Z,6.97
2018-10-01T07:02:00.296Z,10.28
2018-10-01T07:06:53.548Z,10.08
2018-10-01T07:11:46.881Z,6.83
2018-10-01T07:16:40.147Z,7.22
2018-10-01T07:21:33.402Z,7.90
2018-10-01T07:26:27.108Z,6.70
2018-10-01T07:31:20.352Z,6.35
2018-10-01T07:36:13.611Z,4.70
2018-10-01T07:41:07.080Z,5.37
2018-10-01T07:46:00.379Z,4.10
2018-10-01T07:50:53.695Z,7.20
2018-10-01T07:55:46.892Z,7.92
2018-10-01T08:00:40.124Z,3.05
2018-10-01T08:05:33.398Z,6.30
2018-10-01T08:10:26.633Z,3.80
2018-10-01T08:15:19.896Z,5.55
2018-10-01T08:20:13.492Z,6.25
2018-10-01T08:25:07.127Z,2.08
2018-10-01T08:30:00.477Z,5.78
2018-10-01T08:34:53.735Z,4.72
2018-10-01T08:39:47.245Z,3.12
2018-10-01T08:44:40.568Z,3.35
2018-10-01T08:49:39.496Z,4.30
2018-10-01T08:54:34.639Z,4.17
2018-10-01T08:59:27.986Z,3.83
2018-10-01T09:04:21.282Z,4.75
2018-10-01T09:09:14.565Z,3.05
2018-10-01T09:14:07.890Z,3.50
2018-10-01T09:19:01.117Z,3.00
2018-10-01T09:23:56.255Z,3.80
2018-10-01T09:28:49.973Z,8.60
2018-10-01T09:33:43.286Z,3.50
2018-10-01T09:38:37.295Z,5.05
2018-10-01T09:43:30.557Z,4.03
2018-10-01T09:48:23.763Z,4.72
2018-10-01T09:53:16.958Z,4.00
2018-10-01T09:58:10.255Z,5.60
2018-10-01T10:03:03.913Z,4.35
2018-10-01T10:07:57.215Z,2.62
2018-10-01T10:12:50.523Z,4.78
2018-10-01T10:17:43.803Z,3.50
2018-10-01T10:22:37.131Z,2.33
2018-10-01T10:27:30.323Z,2.45
2018-10-01T10:32:23.686Z,5.33
2018-10-01T10:37:16.909Z,4.58
2018-10-01T10:42:10.145Z,3.40
2018-10-01T10:47:03.360Z,2.57
2018-10-01T10:51:56.618Z,4.20
2018-10-01T10:56:49.910Z,3.70
2018-10-01T11:01:43.158Z,3.10
2018-10-01T11:06:36.408Z,3.35
2018-10-01T11:11:29.678Z,5.90
2018-10-01T11:16:22.912Z,3.30
2018-10-01T11:21:16.276Z,3.12
2018-10-01T11:26:09.467Z,2.98
2018-10-01T11:31:02.728Z,6.75
2018-10-01T11:35:59.856Z,3.25
2018-10-01T11:40:53.206Z,2.33
2018-10-01T11:45:46.696Z,3.83
2018-10-01T11:50:39.947Z,3.83
2018-10-01T11:55:33.345Z,3.05
2018-10-01T12:00:26.634Z,3.50
2018-10-01T12:05:19.904Z,4.37
2018-10-01T12:10:13.345Z,4.65
2018-10-01T12:15:06.856Z,3.33
2018-10-01T12:20:00.051Z,2.95
2018-10-01T12:24:53.426Z,1.62
2018-10-01T12:29:46.750Z,1.55
2018-10-01T12:34:40.165Z,1.57
2018-10-01T12:39:33.578Z,2.15
2018-10-01T12:44:27.095Z,1.95
2018-10-01T12:49:20.377Z,1.40
2018-10-01T12:54:13.734Z,2.75
2018-10-01T12:59:07.025Z,2.67
2018-10-01T13:04:00.256Z,2.85
2018-10-01T13:08:53.540Z,3.75
2018-10-01T13:13:46.892Z,5.87
2018-10-01T13:18:43.502Z,5.70
2018-10-01T13:23:36.810Z,4.42
2018-10-01T13:28:30.119Z,5.97
2018-10-01T13:33:23.370Z,3.83
2018-10-01T13:38:16.705Z,3.87
2018-10-01T13:43:09.975Z,3.67
2018-10-01T13:48:03.331Z,3.40
2018-10-01T13:52:56.525Z,3.12
2018-10-01T13:57:49.784Z,6.83
2018-10-01T14:02:43.071Z,4.67
2018-10-01T14:07:36.388Z,5.47
2018-10-01T14:12:29.631Z,6.97
2018-10-01T14:17:22.878Z,6.85
2018-10-01T14:22:16.147Z,8.33
2018-10-01T14:27:09.413Z,6.87
2018-10-01T14:32:02.766Z,8.60
2018-10-01T14:36:56.336Z,7.65
2018-10-01T14:41:50.183Z,6.55
2018-10-01T14:46:44.083Z,10.00
2018-10-01T14:51:37.369Z,7.72
2018-10-01T14:56:30.702Z,8.40
2018-10-01T15:01:23.931Z,9.25
2018-10-01T15:06:17.405Z,6.62
2018-10-01T15:11:10.480Z,5.45
2018-10-01T15:16:03.870Z,10.15
2018-10-01T15:20:57.335Z,7.05
2018-10-01T15:25:50.631Z,6.90
2018-10-01T15:30:43.895Z,4.28
2018-10-01T15:35:37.221Z,7.15
2018-10-01T15:40:30.549Z,4.83
2018-10-01T15:45:23.801Z,4.22
2018-10-01T15:50:17.153Z,4.47
2018-10-01T15:55:10.428Z,4.62
2018-10-01T16:00:04.799Z,5.15
2018-10-01T16:04:58.119Z,4.58
2018-10-01T16:09:51.482Z,3.12
2018-10-01T16:14:44.763Z,5.65
2018-10-01T16:19:38.084Z,6.35
2018-10-01T16:24:31.424Z,5.53
2018-10-01T16:29:24.679Z,5.33
2018-10-01T16:34:17.956Z,4.15
2018-10-01T16:39:12.499Z,7.75
2018-10-01T16:44:06.006Z,5.12
2018-10-01T16:48:59.422Z,7.10
2018-10-01T16:53:52.703Z,6.33
2018-10-01T16:58:45.947Z,6.67
2018-10-01T17:03:39.223Z,8.28
2018-10-01T17:08:32.555Z,9.63
2018-10-01T17:13:25.862Z,6.30
2018-10-01T17:18:20.023Z,5.42
2018-10-01T17:23:13.435Z,6.75
2018-10-01T17:28:06.712Z,5.10
2018-10-01T17:32:59.919Z,2.15
2018-10-01T17:37:53.230Z,2.90
2018-10-01T17:42:46.486Z,10.18
2018-10-01T17:47:40.030Z,3.72
2018-10-01T17:52:33.267Z,7.10
2018-10-01T17:57:26.895Z,5.95
2018-10-01T18:02:20.314Z,5.08
2018-10-01T18:07:13.866Z,5.83
2018-10-01T18:12:07.117Z,6.55
2018-10-01T18:17:00.400Z,4.65
2018-10-01T18:21:53.699Z,5.67
2018-10-01T18:26:46.926Z,5.42
2018-10-01T18:31:40.293Z,5.58
2018-10-01T18:36:33.591Z,4.50
2018-10-01T18:41:26.951Z,6.58
2018-10-01T18:46:20.286Z,7.75
2018-10-01T18:51:14.249Z,7.33
2018-10-01T18:56:07.571Z,8.23
2018-10-01T19:01:00.915Z,4.60
2018-10-01T19:05:55.183Z,7.12
2018-10-01T19:10:49.804Z,10.28
2018-10-01T19:15:43.239Z,7.40
2018-10-01T19:20:36.487Z,6.80
2018-10-01T19:25:30.502Z,6.28
2018-10-01T19:30:23.828Z,8.80
2018-10-01T19:35:17.059Z,5.85
2018-10-01T19:40:10.309Z,7.95
2018-10-01T19:45:03.672Z,6.00
2018-10-01T19:49:56.890Z,6.08
2018-10-01T19:54:58.340Z,11.18
2018-10-01T19:59:51.683Z,5.67
2018-10-01T20:04:45.014Z,6.67
2018-10-01T20:09:42.595Z,7.28
2018-10-01T20:14:35.852Z,7.05
2018-10-01T20:19:29.136Z,7.90
2018-10-01T20:24:23.232Z,8.50
2018-10-01T20:29:16.529Z,5.97
2018-10-01T20:34:09.744Z,7.42
2018-10-01T20:39:04.947Z,9.45
2018-10-01T20:44:14.319Z,9.50
2018-10-01T20:49:07.558Z,5.72
2018-10-01T20:54:00.878Z,7.12
2018-10-01T20:58:54.202Z,7.53
2018-10-01T21:03:47.469Z,10.53
2018-10-01T21:08:40.878Z,6.33
2018-10-01T21:13:34.192Z,9.25
2018-10-01T21:18:27.590Z,6.30
2018-10-01T21:23:21.015Z,6.12
2018-10-01T21:28:28.822Z,8.78
2018-10-01T21:33:24.801Z,8.58
2018-10-01T21:38:18.033Z,8.20
2018-10-01T21:43:11.308Z,7.42
2018-10-01T21:48:04.551Z,5.05
2018-10-01T21:52:57.832Z,7.70
2018-10-01T21:57:51.226Z,5.53
2018-10-01T22:02:44.493Z,7.83
2018-10-01T22:07:38.031Z,10.10
2018-10-01T22:12:31.309Z,5.35
2018-10-01T22:17:24.583Z,9.70
2018-10-01T22:22:17.868Z,8.23
2018-10-01T22:27:11.264Z,7.25
2018-10-01T22:32:04.571Z,11.25
2018-10-01T22:36:58.074Z,9.50
2018-10-01T22:41:52.034Z,4.87
2018-10-01T22:46:45.929Z,10.65
2018-10-01T22:51:39.211Z,7.17
2018-10-01T22:56:32.646Z,6.60
2018-10-01T23:01:26.113Z,8.23
2018-10-01T23:06:19.385Z,5.53
2018-10-01T23:11:12.645Z,7.95
2018-10-01T23:16:05.910Z,7.67
2018-10-01T23:20:59.219Z,6.70
2018-10-01T23:25:52.808Z,5.60
2018-10-01T23:30:46.083Z,5.33
2018-10-01T23:35:39.289Z,5.95
2018-10-01T23:40:32.506Z,5.30
2018-10-01T23:45:25.786Z,6.10
2018-10-01T23:50:19.732Z,4.45
2018-10-01T23:55:12.969Z,6.75
